Terminal Aerodrome Forecast
Issued by NWS

Home | Current Version | Previous Version | Graphics & Text | Print | Product List | Glossary On
Versions: 1 2 3 4 5 6 7 8 9 10 11 12 13 14
000
FTUS43 KIWX 271121
TAFSBN
TAF
KSBN 271121Z 2712/2812 16013KT P6SM VCSH BKN040
     FM271400 23017G27KT P6SM VCSH BKN025
     FM280200 24008KT P6SM BKN030
     FM280500 23005KT P6SM SCT035=

USA.gov is the U.S. government's official web portal to all federal, state and local government web resources and services.